createdAt,value
2018-09-10T00:00:22.837Z,0.00
2018-09-10T00:01:22.837Z,0.00
2018-09-10T00:02:22.835Z,0.00
2018-09-10T00:03:22.839Z,0.00
2018-09-10T00:04:22.831Z,0.00
2018-09-10T00:05:22.830Z,0.00
2018-09-10T00:06:22.831Z,0.00
2018-09-10T00:07:22.826Z,0.00
2018-09-10T00:08:22.825Z,0.00
2018-09-10T00:09:22.822Z,0.00
2018-09-10T00:10:22.822Z,0.00
2018-09-10T00:11:22.820Z,0.00
2018-09-10T00:12:22.818Z,0.00
2018-09-10T00:13:22.815Z,0.00
2018-09-10T00:14:22.817Z,0.00
2018-09-10T00:15:22.812Z,0.00
2018-09-10T00:16:22.811Z,0.00
2018-09-10T00:17:22.809Z,0.00
2018-09-10T00:18:22.809Z,0.00
2018-09-10T00:19:22.804Z,0.00
2018-09-10T00:20:22.805Z,0.00
2018-09-10T00:21:22.802Z,0.00
2018-09-10T00:22:22.802Z,0.00
2018-09-10T00:23:22.798Z,0.00
2018-09-10T00:24:22.796Z,0.00
2018-09-10T00:25:22.794Z,0.00
2018-09-10T00:26:22.799Z,0.00
2018-09-10T00:27:22.791Z,0.00
2018-09-10T00:28:22.787Z,0.00
2018-09-10T00:29:22.788Z,0.00
2018-09-10T00:30:22.787Z,0.00
2018-09-10T00:31:22.782Z,0.00
2018-09-10T00:32:22.783Z,0.00
2018-09-10T00:33:22.780Z,0.00
2018-09-10T00:34:22.779Z,0.00
2018-09-10T00:35:22.784Z,0.00
2018-09-10T00:36:22.776Z,0.00
2018-09-10T00:37:22.773Z,0.00
2018-09-10T00:38:22.773Z,0.00
2018-09-10T00:39:22.768Z,0.00
2018-09-10T00:40:22.765Z,0.00
2018-09-10T00:41:22.767Z,0.00
2018-09-10T00:42:22.768Z,0.00
2018-09-10T00:43:23.567Z,0.00
2018-09-10T00:44:22.762Z,0.00
2018-09-10T00:45:22.758Z,0.00
2018-09-10T00:46:22.756Z,0.00
2018-09-10T00:47:22.763Z,0.00
2018-09-10T00:48:22.752Z,0.00
2018-09-10T00:49:22.749Z,0.00
2018-09-10T00:50:22.753Z,0.00
2018-09-10T00:51:22.741Z,0.00
2018-09-10T00:52:22.744Z,0.00
2018-09-10T00:53:22.751Z,0.00
2018-09-10T00:54:22.740Z,0.00
2018-09-10T00:55:22.743Z,0.00
2018-09-10T00:56:22.734Z,0.00
2018-09-10T00:57:22.734Z,0.00
2018-09-10T00:58:22.733Z,0.00
2018-09-10T00:59:22.729Z,0.00
2018-09-10T01:00:22.727Z,0.00
2018-09-10T01:01:22.725Z,0.00
2018-09-10T01:02:22.724Z,0.00
2018-09-10T01:03:22.721Z,0.00
2018-09-10T01:04:22.715Z,0.00
2018-09-10T01:05:22.719Z,0.00
2018-09-10T01:06:22.717Z,0.00
2018-09-10T01:07:22.711Z,0.00
2018-09-10T01:08:22.714Z,0.00
2018-09-10T01:09:22.710Z,0.00
2018-09-10T01:10:22.706Z,0.00
2018-09-10T01:11:22.704Z,0.00
2018-09-10T01:12:22.704Z,0.00
2018-09-10T01:13:22.699Z,0.00
2018-09-10T01:14:22.693Z,0.00
2018-09-10T01:15:22.695Z,0.00
2018-09-10T01:16:22.692Z,0.00
2018-09-10T01:17:22.689Z,0.00
2018-09-10T01:18:22.690Z,0.00
2018-09-10T01:19:22.686Z,0.00
2018-09-10T01:20:22.684Z,0.00
2018-09-10T01:21:22.683Z,0.00
2018-09-10T01:22:22.683Z,0.00
2018-09-10T01:23:22.678Z,0.00
2018-09-10T01:24:22.677Z,0.00
2018-09-10T01:25:22.672Z,0.00
2018-09-10T01:26:22.672Z,0.00
2018-09-10T01:27:22.669Z,0.00
2018-09-10T01:28:22.666Z,0.00
2018-09-10T01:29:22.662Z,0.00
2018-09-10T01:30:22.660Z,0.00
2018-09-10T01:31:22.658Z,0.00
2018-09-10T01:32:22.656Z,0.00
2018-09-10T01:33:22.654Z,0.00
2018-09-10T01:34:22.654Z,0.00
2018-09-10T01:35:22.649Z,0.00
2018-09-10T01:36:22.647Z,0.00
2018-09-10T01:37:22.644Z,0.00
2018-09-10T01:38:22.642Z,0.00
2018-09-10T01:39:22.640Z,0.00
2018-09-10T01:40:22.637Z,0.00
2018-09-10T01:41:22.634Z,0.00
2018-09-10T01:42:22.633Z,0.00
2018-09-10T01:43:22.629Z,0.00
2018-09-10T01:44:22.626Z,0.00
2018-09-10T01:45:22.626Z,0.00
2018-09-10T01:46:22.623Z,0.00
2018-09-10T01:47:22.621Z,0.00
2018-09-10T01:48:22.620Z,0.00
2018-09-10T01:49:22.614Z,0.00
2018-09-10T01:50:22.614Z,0.00
2018-09-10T01:51:22.612Z,0.00
2018-09-10T01:52:22.607Z,0.00
2018-09-10T01:53:22.605Z,0.00
2018-09-10T01:54:22.606Z,0.00
2018-09-10T01:55:22.607Z,0.00
2018-09-10T01:56:22.598Z,0.00
2018-09-10T01:57:22.599Z,0.00
2018-09-10T01:58:22.598Z,0.00
2018-09-10T01:59:22.590Z,0.00
2018-09-10T02:00:22.594Z,0.00
2018-09-10T02:01:22.586Z,0.00
2018-09-10T02:02:22.584Z,0.00
2018-09-10T02:03:22.586Z,0.00
2018-09-10T02:04:22.576Z,0.00
2018-09-10T02:05:22.577Z,0.00
2018-09-10T02:06:22.575Z,0.00
2018-09-10T02:07:22.575Z,0.00
2018-09-10T02:08:22.567Z,0.00
2018-09-10T02:09:22.611Z,0.00
2018-09-10T02:10:22.564Z,0.00
2018-09-10T02:11:22.558Z,0.00
2018-09-10T02:12:22.560Z,0.00
2018-09-10T02:13:22.555Z,0.00
2018-09-10T02:14:22.553Z,0.00
2018-09-10T02:15:22.551Z,0.00
2018-09-10T02:16:22.549Z,0.00
2018-09-10T02:17:22.557Z,0.00
2018-09-10T02:18:22.545Z,0.00
2018-09-10T02:19:22.547Z,0.00
2018-09-10T02:20:22.626Z,0.00
2018-09-10T02:21:22.538Z,0.00
2018-09-10T02:22:22.530Z,0.00
2018-09-10T02:23:22.532Z,0.00
2018-09-10T02:24:22.533Z,0.00
2018-09-10T02:25:22.528Z,0.00
2018-09-10T02:26:22.526Z,0.00
2018-09-10T02:27:22.585Z,0.00
2018-09-10T02:28:22.522Z,0.00
2018-09-10T02:29:22.546Z,0.00
2018-09-10T02:30:22.517Z,0.00
2018-09-10T02:31:22.518Z,0.00
2018-09-10T02:32:22.511Z,0.00
2018-09-10T02:33:22.508Z,0.00
2018-09-10T02:34:22.507Z,0.00
2018-09-10T02:35:22.504Z,0.00
2018-09-10T02:36:22.505Z,0.00
2018-09-10T02:37:22.500Z,0.00
2018-09-10T02:38:22.533Z,0.00
2018-09-10T02:39:22.495Z,0.00
2018-09-10T02:40:22.494Z,0.00
2018-09-10T02:41:22.500Z,0.00
2018-09-10T02:42:22.490Z,0.00
2018-09-10T02:43:22.487Z,0.00
2018-09-10T02:44:22.483Z,0.00
2018-09-10T02:45:22.487Z,0.00
2018-09-10T02:46:22.484Z,0.00
2018-09-10T02:47:22.477Z,0.00
2018-09-10T02:48:22.479Z,0.00
2018-09-10T02:49:22.477Z,0.00
2018-09-10T02:50:22.471Z,0.00
2018-09-10T02:51:22.471Z,0.00
2018-09-10T02:52:22.466Z,0.00
2018-09-10T02:53:22.462Z,0.00
2018-09-10T02:54:22.464Z,0.00
2018-09-10T02:55:22.461Z,0.00
2018-09-10T02:56:22.455Z,0.00
2018-09-10T02:57:22.456Z,0.00
2018-09-10T02:58:22.452Z,0.00
2018-09-10T02:59:22.451Z,0.00
2018-09-10T03:00:22.451Z,0.00
2018-09-10T03:01:22.447Z,0.00
2018-09-10T03:02:22.445Z,0.00
2018-09-10T03:03:22.447Z,0.00
2018-09-10T03:04:22.444Z,0.00
2018-09-10T03:05:22.438Z,0.00
2018-09-10T03:06:22.436Z,0.00
2018-09-10T03:07:22.434Z,0.00
2018-09-10T03:08:22.434Z,0.00
2018-09-10T03:09:22.429Z,0.00
2018-09-10T03:10:22.442Z,0.00
2018-09-10T03:11:22.425Z,0.00
2018-09-10T03:12:22.422Z,0.00
2018-09-10T03:13:23.036Z,0.00
2018-09-10T03:14:22.424Z,0.00
2018-09-10T03:15:22.426Z,0.00
2018-09-10T03:16:22.414Z,0.00
2018-09-10T03:17:22.412Z,0.00
2018-09-10T03:18:22.411Z,0.00
2018-09-10T03:19:22.403Z,0.00
2018-09-10T03:20:22.408Z,0.00
2018-09-10T03:21:22.405Z,0.00
2018-09-10T03:22:22.402Z,0.00
2018-09-10T03:23:22.395Z,0.00
2018-09-10T03:24:22.397Z,0.00
2018-09-10T03:25:22.395Z,0.00
2018-09-10T03:26:22.397Z,0.00
2018-09-10T03:27:22.394Z,0.00
2018-09-10T03:28:22.386Z,0.00
2018-09-10T03:29:22.384Z,0.00
2018-09-10T03:30:22.384Z,0.00
2018-09-10T03:31:22.380Z,0.00
2018-09-10T03:32:22.378Z,0.00
2018-09-10T03:33:22.415Z,0.00
2018-09-10T03:34:22.373Z,0.00
2018-09-10T03:35:22.371Z,0.00
2018-09-10T03:36:22.385Z,0.00
2018-09-10T03:37:22.370Z,0.00
2018-09-10T03:38:22.376Z,0.00
2018-09-10T03:39:22.365Z,0.00
2018-09-10T03:40:22.359Z,0.00
2018-09-10T03:41:22.358Z,0.00
2018-09-10T03:42:22.353Z,0.00
2018-09-10T03:43:22.351Z,0.00
2018-09-10T03:44:22.356Z,0.00
2018-09-10T03:45:22.349Z,0.00
2018-09-10T03:46:22.347Z,0.00
2018-09-10T03:47:22.481Z,0.00
2018-09-10T03:48:22.342Z,0.00
2018-09-10T03:49:22.340Z,0.00
2018-09-10T03:50:22.335Z,0.00
2018-09-10T03:51:22.335Z,0.00
2018-09-10T03:52:22.332Z,0.00
2018-09-10T03:53:22.329Z,0.00
2018-09-10T03:54:22.328Z,0.00
2018-09-10T03:55:22.321Z,0.00
2018-09-10T03:56:22.328Z,0.00
2018-09-10T03:57:22.321Z,0.00
2018-09-10T03:58:22.315Z,0.00
2018-09-10T03:59:22.313Z,4.00
2018-09-10T04:00:22.311Z,0.00
2018-09-10T04:01:22.314Z,0.00
2018-09-10T04:02:22.307Z,4.00
2018-09-10T04:03:22.307Z,0.00
2018-09-10T04:04:22.301Z,4.00
2018-09-10T04:05:22.300Z,4.00
2018-09-10T04:06:22.300Z,4.00
2018-09-10T04:07:22.293Z,8.00
2018-09-10T04:08:22.296Z,8.00
2018-09-10T04:09:22.293Z,8.00
2018-09-10T04:10:22.294Z,12.00
2018-09-10T04:11:22.284Z,8.00
2018-09-10T04:12:22.283Z,16.00
2018-09-10T04:13:22.281Z,16.00
2018-09-10T04:14:22.277Z,16.00
2018-09-10T04:15:22.274Z,16.00
2018-09-10T04:16:22.272Z,24.00
2018-09-10T04:17:22.340Z,28.00
2018-09-10T04:18:22.268Z,28.00
2018-09-10T04:19:22.275Z,36.00
2018-09-10T04:20:22.261Z,40.00
2018-09-10T04:21:22.264Z,48.00
2018-09-10T04:22:22.261Z,52.00
2018-09-10T04:23:22.254Z,60.00
2018-09-10T04:24:22.251Z,68.00
2018-09-10T04:25:22.254Z,76.00
2018-09-10T04:26:22.249Z,84.00
2018-09-10T04:27:22.245Z,96.00
2018-09-10T04:28:22.244Z,108.00
2018-09-10T04:29:22.240Z,116.00
2018-09-10T04:30:22.240Z,124.00
2018-09-10T04:31:22.236Z,140.00
2018-09-10T04:32:22.232Z,152.00
2018-09-10T04:33:22.231Z,160.00
2018-09-10T04:34:22.233Z,172.00
2018-09-10T04:35:22.226Z,188.00
2018-09-10T04:36:22.228Z,204.00
2018-09-10T04:37:22.225Z,220.00
2018-09-10T04:38:22.216Z,248.00
2018-09-10T04:39:22.217Z,288.00
2018-09-10T04:40:22.211Z,336.00
2018-09-10T04:41:22.212Z,380.00
2018-09-10T04:42:22.217Z,420.00
2018-09-10T04:43:22.207Z,452.00
2018-09-10T04:44:22.203Z,472.00
2018-09-10T04:45:22.202Z,496.00
2018-09-10T04:46:22.199Z,520.00
2018-09-10T04:47:22.198Z,548.00
2018-09-10T04:48:22.189Z,584.00
2018-09-10T04:49:22.192Z,616.00
2018-09-10T04:50:22.190Z,652.00
2018-09-10T04:51:22.193Z,684.00
2018-09-10T04:52:22.191Z,708.00
2018-09-10T04:53:22.182Z,736.00
2018-09-10T04:54:22.179Z,764.00
2018-09-10T04:55:22.181Z,792.00
2018-09-10T04:56:22.171Z,812.00
2018-09-10T04:57:22.172Z,832.00
2018-09-10T04:58:22.170Z,860.00
2018-09-10T04:59:22.169Z,892.00
2018-09-10T05:00:22.161Z,928.00
2018-09-10T05:01:22.162Z,944.00
2018-09-10T05:02:22.161Z,940.00
2018-09-10T05:03:22.155Z,956.00
2018-09-10T05:04:22.182Z,984.00
2018-09-10T05:05:22.154Z,1012.00
2018-09-10T05:06:22.152Z,1040.00
2018-09-10T05:07:22.147Z,1068.00
2018-09-10T05:08:22.162Z,1092.00
2018-09-10T05:09:22.142Z,1120.00
2018-09-10T05:10:22.139Z,1144.00
2018-09-10T05:11:22.136Z,1172.00
2018-09-10T05:12:22.139Z,1200.00
2018-09-10T05:13:22.136Z,1232.00
2018-09-10T05:14:22.134Z,1276.00
2018-09-10T05:15:22.132Z,1328.00
2018-09-10T05:16:22.126Z,1368.00
2018-09-10T05:17:22.137Z,1380.00
2018-09-10T05:18:22.133Z,1364.00
2018-09-10T05:19:22.119Z,1332.00
2018-09-10T05:20:22.115Z,1312.00
2018-09-10T05:21:22.115Z,1328.00
2018-09-10T05:22:22.114Z,1360.00
2018-09-10T05:23:22.110Z,1372.00
2018-09-10T05:24:22.109Z,1380.00
2018-09-10T05:25:22.106Z,1416.00
2018-09-10T05:26:22.105Z,1516.00
2018-09-10T05:27:22.104Z,1608.00
2018-09-10T05:28:22.104Z,1684.00
2018-09-10T05:29:22.100Z,1796.00
2018-09-10T05:30:22.095Z,1816.00
2018-09-10T05:31:22.092Z,1916.00
2018-09-10T05:32:22.091Z,2000.00
2018-09-10T05:33:22.090Z,2068.00
2018-09-10T05:34:22.092Z,2088.00
2018-09-10T05:35:22.085Z,2076.00
2018-09-10T05:36:22.083Z,2032.00
2018-09-10T05:37:22.080Z,2036.00
2018-09-10T05:38:22.086Z,2060.00
2018-09-10T05:39:22.077Z,2172.00
2018-09-10T05:40:22.077Z,2256.00
2018-09-10T05:41:22.076Z,2300.00
2018-09-10T05:42:22.069Z,2360.00
2018-09-10T05:43:22.065Z,2400.00
2018-09-10T05:44:22.069Z,2392.00
2018-09-10T05:45:22.070Z,2432.00
2018-09-10T05:46:22.071Z,2468.00
2018-09-10T05:47:22.076Z,2508.00
2018-09-10T05:48:22.065Z,2560.00
2018-09-10T05:49:22.065Z,2604.00
2018-09-10T05:50:22.058Z,2652.00
2018-09-10T05:51:22.054Z,2712.00
2018-09-10T05:52:22.054Z,3000.00
2018-09-10T05:53:22.114Z,3488.00
2018-09-10T05:54:22.052Z,4152.00
2018-09-10T05:55:22.109Z,4572.00
2018-09-10T05:56:22.049Z,4592.00
2018-09-10T05:57:22.044Z,4648.00
2018-09-10T05:58:22.041Z,4732.00
2018-09-10T05:59:22.043Z,4260.00
2018-09-10T06:00:22.044Z,4292.00
2018-09-10T06:01:22.043Z,4460.00
2018-09-10T06:02:22.041Z,5772.00
2018-09-10T06:03:22.045Z,5188.00
2018-09-10T06:04:22.037Z,7656.00
2018-09-10T06:05:22.037Z,8500.00
2018-09-10T06:06:22.042Z,6884.00
2018-09-10T06:07:22.035Z,7556.00
2018-09-10T06:08:22.036Z,8160.00
2018-09-10T06:09:22.035Z,8908.00
2018-09-10T06:10:22.051Z,9324.00
2018-09-10T06:11:22.027Z,9780.00
2018-09-10T06:12:22.032Z,9904.00
2018-09-10T06:13:22.032Z,12668.00
2018-09-10T06:14:22.033Z,15616.00
2018-09-10T06:15:22.031Z,16064.00
2018-09-10T06:16:22.034Z,15488.00
2018-09-10T06:17:22.032Z,15968.00
2018-09-10T06:18:22.032Z,17056.00
2018-09-10T06:19:22.032Z,18656.00
2018-09-10T06:20:22.035Z,19008.00
2018-09-10T06:21:22.038Z,17120.00
2018-09-10T06:22:22.032Z,17888.00
2018-09-10T06:23:22.037Z,18720.00
2018-09-10T06:24:22.036Z,20832.00
2018-09-10T06:25:22.038Z,13104.00
2018-09-10T06:26:22.039Z,7816.00
2018-09-10T06:27:22.042Z,7852.00
2018-09-10T06:28:22.037Z,8904.00
2018-09-10T06:29:22.042Z,21440.00
2018-09-10T06:30:22.123Z,8012.00
2018-09-10T06:31:22.048Z,6828.00
2018-09-10T06:32:22.050Z,4796.00
2018-09-10T06:33:22.051Z,4636.00
2018-09-10T06:34:22.055Z,4572.00
2018-09-10T06:35:22.055Z,4764.00
2018-09-10T06:36:22.056Z,5416.00
2018-09-10T06:37:22.061Z,5432.00
2018-09-10T06:38:22.060Z,4880.00
2018-09-10T06:39:22.066Z,4792.00
2018-09-10T06:40:22.066Z,5332.00
2018-09-10T06:41:22.065Z,7220.00
2018-09-10T06:42:22.066Z,6468.00
2018-09-10T06:43:22.068Z,6368.00
2018-09-10T06:44:22.073Z,7588.00
2018-09-10T06:45:22.073Z,16576.00
2018-09-10T06:46:22.073Z,7732.00
2018-09-10T06:47:22.074Z,15916.00
2018-09-10T06:48:22.593Z,11196.00
2018-09-10T06:49:22.079Z,9788.00
2018-09-10T06:50:22.599Z,9624.00
2018-09-10T06:51:22.081Z,9116.00
2018-09-10T06:52:22.084Z,10596.00
2018-09-10T06:53:22.120Z,13340.00
2018-09-10T06:54:22.090Z,11456.00
2018-09-10T06:55:22.089Z,23200.00
2018-09-10T06:56:22.089Z,18848.00
2018-09-10T06:57:22.088Z,21280.00
2018-09-10T06:58:22.095Z,14040.00
2018-09-10T06:59:22.097Z,17248.00
2018-09-10T07:00:22.182Z,19136.00
2018-09-10T07:01:22.112Z,23072.00
2018-09-10T07:02:22.102Z,18592.00
2018-09-10T07:03:22.102Z,21440.00
2018-09-10T07:04:22.107Z,18720.00
2018-09-10T07:05:22.107Z,17728.00
2018-09-10T07:06:22.176Z,20640.00
2018-09-10T07:07:22.113Z,18496.00
2018-09-10T07:08:22.115Z,16448.00
2018-09-10T07:09:22.118Z,13324.00
2018-09-10T07:10:22.117Z,12072.00
2018-09-10T07:11:22.123Z,10524.00
2018-09-10T07:12:22.127Z,10060.00
2018-09-10T07:13:22.130Z,10020.00
2018-09-10T07:14:22.137Z,11680.00
2018-09-10T07:15:22.136Z,14816.00
2018-09-10T07:16:22.136Z,13268.00
2018-09-10T07:17:22.142Z,18272.00
2018-09-10T07:18:22.145Z,15124.00
2018-09-10T07:19:22.149Z,12400.00
2018-09-10T07:20:22.154Z,12940.00
2018-09-10T07:21:22.156Z,12692.00
2018-09-10T07:22:22.156Z,10632.00
2018-09-10T07:23:22.159Z,10136.00
2018-09-10T07:24:22.162Z,9788.00
2018-09-10T07:25:22.166Z,9256.00
2018-09-10T07:26:22.166Z,8848.00
2018-09-10T07:27:22.168Z,8640.00
2018-09-10T07:28:22.173Z,8628.00
2018-09-10T07:29:22.260Z,8608.00
2018-09-10T07:30:22.180Z,8476.00
2018-09-10T07:31:22.180Z,8352.00
2018-09-10T07:32:22.194Z,8268.00
2018-09-10T07:33:22.189Z,8176.00
2018-09-10T07:34:22.196Z,8240.00
2018-09-10T07:35:22.204Z,8540.00
2018-09-10T07:36:22.197Z,8760.00
2018-09-10T07:37:22.202Z,8656.00
2018-09-10T07:38:22.206Z,8512.00
2018-09-10T07:39:22.211Z,8376.00
2018-09-10T07:40:22.210Z,8504.00
2018-09-10T07:41:22.304Z,8808.00
2018-09-10T07:42:22.216Z,9344.00
2018-09-10T07:43:23.205Z,9140.00
2018-09-10T07:44:22.221Z,9220.00
2018-09-10T07:45:22.226Z,9376.00
2018-09-10T07:46:22.226Z,9612.00
2018-09-10T07:47:22.230Z,9948.00
2018-09-10T07:48:22.232Z,10444.00
2018-09-10T07:49:22.239Z,10848.00
2018-09-10T07:50:22.241Z,10712.00
2018-09-10T07:51:22.240Z,10900.00
2018-09-10T07:52:22.244Z,10676.00
2018-09-10T07:53:22.250Z,10796.00
2018-09-10T07:54:22.272Z,10788.00
2018-09-10T07:55:22.508Z,10772.00
2018-09-10T07:56:22.256Z,10776.00
2018-09-10T07:57:22.379Z,10808.00
2018-09-10T07:58:22.261Z,10548.00
2018-09-10T07:59:22.261Z,10456.00
2018-09-10T08:00:22.264Z,10324.00
2018-09-10T08:01:22.317Z,10348.00
2018-09-10T08:02:22.274Z,10364.00
2018-09-10T08:03:22.277Z,10220.00
2018-09-10T08:04:22.275Z,10488.00
2018-09-10T08:05:22.283Z,10628.00
2018-09-10T08:06:22.308Z,10648.00
2018-09-10T08:07:22.295Z,10796.00
2018-09-10T08:08:22.291Z,10804.00
2018-09-10T08:09:22.389Z,10688.00
2018-09-10T08:10:22.304Z,10640.00
2018-09-10T08:11:22.302Z,10496.00
2018-09-10T08:12:22.304Z,10280.00
2018-09-10T08:13:22.362Z,10148.00
2018-09-10T08:14:22.310Z,10232.00
2018-09-10T08:15:22.312Z,10104.00
2018-09-10T08:16:22.317Z,9768.00
2018-09-10T08:17:22.321Z,9116.00
2018-09-10T08:18:22.324Z,8300.00
2018-09-10T08:19:22.327Z,7620.00
2018-09-10T08:20:22.332Z,7268.00
2018-09-10T08:21:22.335Z,7120.00
2018-09-10T08:22:22.500Z,7352.00
2018-09-10T08:23:22.340Z,7788.00
2018-09-10T08:24:22.456Z,8424.00
2018-09-10T08:25:22.348Z,8948.00
2018-09-10T08:26:23.203Z,9404.00
2018-09-10T08:27:23.142Z,9760.00
2018-09-10T08:28:22.362Z,10096.00
2018-09-10T08:29:22.361Z,10244.00
2018-09-10T08:30:22.419Z,10160.00
2018-09-10T08:31:22.654Z,9904.00
2018-09-10T08:32:22.370Z,9588.00
2018-09-10T08:33:22.373Z,9156.00
2018-09-10T08:34:22.392Z,8668.00
2018-09-10T08:35:22.381Z,8512.00
2018-09-10T08:36:22.448Z,8884.00
2018-09-10T08:37:22.604Z,9360.00
2018-09-10T08:38:22.397Z,9900.00
2018-09-10T08:39:22.462Z,10292.00
2018-09-10T08:40:22.400Z,10652.00
2018-09-10T08:41:22.403Z,10884.00
2018-09-10T08:42:22.408Z,10952.00
2018-09-10T08:43:22.413Z,10888.00
2018-09-10T08:44:22.411Z,10768.00
2018-09-10T08:45:22.419Z,10680.00
2018-09-10T08:46:22.423Z,10600.00
2018-09-10T08:47:22.431Z,10576.00
2018-09-10T08:48:22.524Z,10516.00
2018-09-10T08:49:22.434Z,10252.00
2018-09-10T08:50:22.447Z,10012.00
2018-09-10T08:51:22.462Z,10008.00
2018-09-10T08:52:22.446Z,10116.00
2018-09-10T08:53:22.453Z,10224.00
2018-09-10T08:54:22.492Z,10304.00
2018-09-10T08:55:22.571Z,10192.00
2018-09-10T08:56:22.541Z,10156.00
2018-09-10T08:57:22.467Z,10164.00
2018-09-10T08:58:22.483Z,10128.00
2018-09-10T08:59:22.472Z,10140.00
2018-09-10T09:00:22.511Z,10184.00
2018-09-10T09:01:22.480Z,10244.00
2018-09-10T09:02:22.486Z,10160.00
2018-09-10T09:03:23.163Z,10112.00
2018-09-10T09:04:22.493Z,10096.00
2018-09-10T09:05:22.499Z,10132.00
2018-09-10T09:06:22.561Z,10136.00
2018-09-10T09:07:23.220Z,10044.00
2018-09-10T09:08:22.517Z,9964.00
2018-09-10T09:09:22.516Z,9968.00
2018-09-10T09:10:22.521Z,10012.00
2018-09-10T09:11:22.570Z,10056.00
2018-09-10T09:12:22.526Z,10048.00
2018-09-10T09:13:22.619Z,9968.00
2018-09-10T09:14:22.556Z,9712.00
2018-09-10T09:15:22.638Z,9344.00
2018-09-10T09:16:22.640Z,9256.00
2018-09-10T09:17:22.575Z,9288.00
2018-09-10T09:18:22.554Z,9332.00
2018-09-10T09:19:22.558Z,9012.00
2018-09-10T09:20:22.564Z,8776.00
2018-09-10T09:21:22.641Z,8584.00
2018-09-10T09:22:22.575Z,8648.00
2018-09-10T09:23:22.601Z,8764.00
2018-09-10T09:24:22.880Z,8808.00
2018-09-10T09:25:22.589Z,8696.00
2018-09-10T09:26:22.594Z,8668.00
2018-09-10T09:27:22.594Z,8652.00
2018-09-10T09:28:22.598Z,8700.00
2018-09-10T09:29:22.607Z,8764.00
2018-09-10T09:30:22.781Z,8792.00
2018-09-10T09:31:22.613Z,8784.00
2018-09-10T09:32:22.617Z,8708.00
2018-09-10T09:33:22.620Z,8616.00
2018-09-10T09:34:22.624Z,8516.00
2018-09-10T09:35:22.630Z,8432.00
2018-09-10T09:36:22.740Z,8284.00
2018-09-10T09:37:22.642Z,8144.00
2018-09-10T09:38:22.649Z,7996.00
2018-09-10T09:39:22.649Z,7876.00
2018-09-10T09:40:22.655Z,7724.00
2018-09-10T09:41:22.661Z,7576.00
2018-09-10T09:42:22.667Z,7456.00
2018-09-10T09:43:22.677Z,7364.00
2018-09-10T09:44:22.675Z,7260.00
2018-09-10T09:45:22.679Z,7180.00
2018-09-10T09:46:22.686Z,7132.00
2018-09-10T09:47:22.689Z,7104.00
2018-09-10T09:48:22.686Z,7072.00
2018-09-10T09:49:22.882Z,7088.00
2018-09-10T09:50:22.747Z,7132.00
2018-09-10T09:51:22.701Z,7236.00
2018-09-10T09:52:22.800Z,7416.00
2018-09-10T09:53:22.727Z,7652.00
2018-09-10T09:54:23.339Z,7900.00
2018-09-10T09:55:23.180Z,8116.00
2018-09-10T09:56:22.728Z,8312.00
2018-09-10T09:57:22.729Z,8468.00
2018-09-10T09:58:22.735Z,8588.00
2018-09-10T09:59:22.738Z,8688.00
2018-09-10T10:00:22.742Z,8752.00
2018-09-10T10:01:22.755Z,8744.00
2018-09-10T10:02:22.753Z,8664.00
2018-09-10T10:03:22.756Z,8532.00
2018-09-10T10:04:22.778Z,8332.00
2018-09-10T10:05:22.765Z,8220.00
2018-09-10T10:06:22.771Z,8244.00
2018-09-10T10:07:23.016Z,8312.00
2018-09-10T10:08:22.779Z,8404.00
2018-09-10T10:09:22.785Z,8488.00
2018-09-10T10:10:22.829Z,8536.00
2018-09-10T10:11:22.910Z,8516.00
2018-09-10T10:12:22.941Z,8472.00
2018-09-10T10:13:22.813Z,8440.00
2018-09-10T10:14:22.808Z,8352.00
2018-09-10T10:15:22.813Z,8176.00
2018-09-10T10:16:22.844Z,7992.00
2018-09-10T10:17:22.822Z,7856.00
2018-09-10T10:18:22.850Z,7788.00
2018-09-10T10:19:22.858Z,7760.00
2018-09-10T10:20:22.834Z,7804.00
2018-09-10T10:21:22.836Z,7940.00
2018-09-10T10:22:22.844Z,8036.00
2018-09-10T10:23:22.848Z,8028.00
2018-09-10T10:24:22.898Z,8016.00
2018-09-10T10:25:22.908Z,8056.00
2018-09-10T10:26:22.861Z,8116.00
2018-09-10T10:27:22.871Z,8068.00
2018-09-10T10:28:23.029Z,7904.00
2018-09-10T10:29:22.876Z,7804.00
2018-09-10T10:30:22.879Z,7780.00
2018-09-10T10:31:22.887Z,7784.00
2018-09-10T10:32:22.888Z,7888.00
2018-09-10T10:33:22.892Z,8088.00
2018-09-10T10:34:22.896Z,8252.00
2018-09-10T10:35:22.909Z,8320.00
2018-09-10T10:36:22.905Z,8228.00
2018-09-10T10:37:22.909Z,8072.00
2018-09-10T10:38:23.137Z,7964.00
2018-09-10T10:39:22.961Z,7896.00
2018-09-10T10:40:22.926Z,7920.00
2018-09-10T10:41:23.040Z,7936.00
2018-09-10T10:42:22.939Z,7932.00
2018-09-10T10:43:22.942Z,7916.00
2018-09-10T10:44:22.948Z,7912.00
2018-09-10T10:45:22.957Z,7944.00
2018-09-10T10:46:22.956Z,7912.00
2018-09-10T10:47:23.012Z,7884.00
2018-09-10T10:48:22.965Z,7984.00
2018-09-10T10:49:22.973Z,8248.00
2018-09-10T10:50:23.155Z,8452.00
2018-09-10T10:51:22.976Z,8536.00
2018-09-10T10:52:22.983Z,8608.00
2018-09-10T10:53:22.986Z,8684.00
2018-09-10T10:54:22.996Z,8768.00
2018-09-10T10:55:22.999Z,8808.00
2018-09-10T10:56:23.091Z,8932.00
2018-09-10T10:57:23.707Z,8964.00
2018-09-10T10:58:23.011Z,9004.00
2018-09-10T10:59:23.017Z,9124.00
2018-09-10T11:00:23.023Z,9292.00
2018-09-10T11:01:23.027Z,9384.00
2018-09-10T11:02:23.034Z,9352.00
2018-09-10T11:03:23.037Z,9284.00
2018-09-10T11:04:23.042Z,9088.00
2018-09-10T11:05:23.049Z,8816.00
2018-09-10T11:06:23.053Z,8468.00
2018-09-10T11:07:23.061Z,8184.00
2018-09-10T11:08:23.066Z,7964.00
2018-09-10T11:09:23.063Z,7868.00
2018-09-10T11:10:23.070Z,7932.00
2018-09-10T11:11:23.591Z,8036.00
2018-09-10T11:12:23.147Z,8108.00
2018-09-10T11:13:23.295Z,8116.00
2018-09-10T11:14:23.609Z,8084.00
2018-09-10T11:15:23.281Z,8052.00
2018-09-10T11:16:23.126Z,7956.00
2018-09-10T11:17:23.390Z,7848.00
2018-09-10T11:18:23.921Z,7768.00
2018-09-10T11:19:23.301Z,7728.00
2018-09-10T11:20:23.420Z,7768.00
2018-09-10T11:21:23.189Z,7808.00
2018-09-10T11:22:23.623Z,7948.00
2018-09-10T11:23:23.257Z,8128.00
2018-09-10T11:24:23.139Z,8364.00
2018-09-10T11:25:24.462Z,8692.00
2018-09-10T11:26:23.151Z,9152.00
2018-09-10T11:27:23.522Z,9012.00
2018-09-10T11:28:25.001Z,8908.00
2018-09-10T11:29:23.506Z,8556.00
2018-09-10T11:30:23.809Z,8212.00
2018-09-10T11:31:23.670Z,8204.00
2018-09-10T11:32:24.426Z,8140.00
2018-09-10T11:33:23.300Z,7896.00
2018-09-10T11:34:23.629Z,7796.00
2018-09-10T11:35:23.422Z,7792.00
2018-09-10T11:36:23.294Z,7924.00
2018-09-10T11:37:23.755Z,8176.00
2018-09-10T11:38:23.665Z,8520.00
2018-09-10T11:39:23.297Z,8192.00
2018-09-10T11:40:23.397Z,7716.00
2018-09-10T11:41:23.272Z,7308.00
2018-09-10T11:42:23.320Z,7064.00
2018-09-10T11:43:23.309Z,7108.00
2018-09-10T11:44:23.277Z,7248.00
2018-09-10T11:45:23.256Z,7344.00
2018-09-10T11:46:23.438Z,7268.00
2018-09-10T11:47:23.294Z,7216.00
2018-09-10T11:48:23.295Z,7136.00
2018-09-10T11:49:23.288Z,7280.00
2018-09-10T11:50:23.310Z,7472.00
2018-09-10T11:51:23.381Z,7676.00
2018-09-10T11:52:23.349Z,7972.00
2018-09-10T11:53:23.320Z,8116.00
2018-09-10T11:54:23.298Z,8132.00
2018-09-10T11:55:23.420Z,8120.00
2018-09-10T11:56:23.330Z,8068.00
2018-09-10T11:57:23.489Z,8084.00
2018-09-10T11:58:23.394Z,8144.00
2018-09-10T11:59:23.381Z,8092.00
2018-09-10T12:00:23.385Z,8140.00
2018-09-10T12:01:23.374Z,8312.00
2018-09-10T12:02:23.621Z,8132.00
2018-09-10T12:03:23.343Z,7872.00
2018-09-10T12:04:23.403Z,7568.00
2018-09-10T12:05:23.392Z,7412.00
2018-09-10T12:06:23.375Z,7404.00
2018-09-10T12:07:23.418Z,7476.00
2018-09-10T12:08:23.528Z,7480.00
2018-09-10T12:09:23.401Z,7324.00
2018-09-10T12:10:23.431Z,7280.00
2018-09-10T12:11:23.409Z,7436.00
2018-09-10T12:12:23.445Z,7760.00
2018-09-10T12:13:23.447Z,8100.00
2018-09-10T12:14:23.537Z,8308.00
2018-09-10T12:15:23.474Z,8288.00
2018-09-10T12:16:23.481Z,8168.00
2018-09-10T12:17:24.310Z,8092.00
2018-09-10T12:18:23.682Z,7944.00
2018-09-10T12:19:23.434Z,7744.00
2018-09-10T12:20:23.437Z,7576.00
2018-09-10T12:21:23.484Z,7512.00
2018-09-10T12:22:23.449Z,7476.00
2018-09-10T12:23:23.454Z,7364.00
2018-09-10T12:24:23.455Z,7268.00
2018-09-10T12:25:23.459Z,7120.00
2018-09-10T12:26:23.466Z,6804.00
2018-09-10T12:27:23.469Z,6256.00